Flight Track Log - Related Links

Times and Time Zones

All times are in EDT time to prevent confusion due to time zone crossing. See the N58MM flight status page for this flight to view local times or setup timezone preferences in your user account.

Time Position Orientation Groundspeed Altitude Reporting Facility
EDT Latitude Longitude Course Direction KTS MPH feet Rate Location/Type
Tue 05:17:06 PM 35.8561 -78.8083 North 182 209 1,200  Level Washington Center
Tue 05:22:52 PM 36.2233 -78.7383 29° Northeast 344 396 15,400 2,432 Climbing Washington Center
Tue 05:23:53 PM 36.3125 -78.6775 26° Northeast 361 415 17,700 2,016 Climbing Washington Center
Tue 05:24:54 PM 36.3994 -78.6242 29° Northeast 368 423 19,500 1,835 Climbing Washington Center
Tue 05:25:54 PM 36.4928 -78.5606 28° Northeast 381 438 21,400 1,966 Climbing Washington Center
Tue 05:26:53 PM 36.5925 -78.4944 32° Northeast 395 455 23,400 1,700 Climbing Washington Center
Tue 05:27:54 PM 36.6986 -78.4131 29° Northeast 395 455 24,800 1,339 Climbing Washington Center
Tue 05:28:54 PM 36.8025 -78.3417 29° Northeast 413 475 26,100 1,424 Climbing Washington Center
Tue 05:29:52 PM 36.9106 -78.2675 30° Northeast 429 494 27,600 1,462 Climbing Washington Center
Tue 05:30:53 PM 37.0081 -78.1981 30° Northeast 435 501 29,000 1,488 Climbing Washington Center
Tue 05:31:53 PM 37.1267 -78.1133 29° Northeast 440 506 30,600 1,500 Climbing Washington Center
Tue 05:32:53 PM 37.2369 -78.0361 30° Northeast 440 506 32,000 1,091 Climbing Washington Center
Tue 05:33:54 PM 37.3492 -77.9561 30° Northeast 451 519 32,800 504 Climbing Washington Center
Tue 05:34:52 PM 37.4675 -77.8708 12° North 465 535 33,000 151 Climbing Washington Center
Tue 05:35:53 PM 37.6017 -77.8356 344° North 483 556 33,100  Climbing Washington Center
Tue 05:36:54 PM 37.7342 -77.8842 347° North 464 534 33,000 -50 Descending Washington Center
Tue 05:37:52 PM 37.8692 -77.9225 347° North 477 549 33,000  Level Washington Center
Tue 05:38:52 PM 38.0039 -77.9608 347° North 487 560 33,000 347 Level Washington Center
Tue 05:39:53 PM 38.1367 -77.9994 347° North 487 560 33,700 787 Climbing Washington Center
Tue 05:40:54 PM 38.2672 -78.0381 350° North 487 560 34,600 645 Climbing Washington Center
Tue 05:41:54 PM 38.3981 -78.0686 22° Northeast 487 560 35,000 200 Climbing Washington Center
Tue 05:42:54 PM 38.5286 -78.0014 19° North 475 547 35,000  Level Washington Center
Tue 05:43:52 PM 38.6633 -77.9419 16° North 486 559 35,000  Level Washington Center
Tue 05:44:53 PM 38.8017 -77.8906 17° North 501 577 35,000  Level Washington Center
Tue 05:45:54 PM 38.9406 -77.8361 17° North 511 588 35,000  Level Washington Center
Tue 05:46:53 PM 39.0789 -77.7817 16° North 516 594 35,000 -234 Level Washington Center
Tue 05:48:28 PM 39.2819 -77.7053 17° North 510 587 34,400 -542 Descending New York Center
Tue 05:49:28 PM 39.4186 -77.6514 17° North 510 587 33,600 -694 Descending New York Center
Tue 05:50:29 PM 39.5508 -77.5997 16° North 505 581 33,000 -303 Descending New York Center
Tue 05:51:27 PM 39.6872 -77.5481 18° North 505 581 33,000  Level New York Center
Tue 05:52:27 PM 39.8197 -77.4933 16° North 505 581 33,000  Level New York Center
Tue 05:53:28 PM 39.9497 -77.4436 18° North 500 575 33,000  Level New York Center
Tue 05:54:29 PM 40.0800 -77.3881 18° North 494 568 33,000  Level New York Center
Tue 05:55:53 PM 40.2383 -77.3189 16° North 489 563 33,000  Level New York Center
Tue 05:56:51 PM 40.4086 -77.2531 17° North 490 564 33,000 -102 Level New York Center
Tue 05:57:51 PM 40.5386 -77.1997 17° North 490 564 32,800 -595 Descending New York Center
Tue 05:58:52 PM 40.6731 -77.1467 18° North 490 564 31,800 -885 Descending New York Center
Tue 05:59:53 PM 40.8072 -77.0906 17° North 490 564 31,000 -1,160 Descending New York Center
Tue 06:00:51 PM 40.9350 -77.0392 17° North 490 564 29,500 -4,068 Descending New York Center
Tue 06:01:51 PM 41.0586 -76.9875 10° North 472 543 23,000 -2,777 Descending New York Center
Tue 06:02:52 PM 41.1808 -76.9600 357° North 467 537 23,900 -50 Climbing New York Center
Tue 06:03:52 PM 41.3014 -76.9683 354° North 446 513 22,900 -496 Descending New York Center
Tue 06:04:53 PM 41.4214 -76.9850 North 435 501 22,900  Level New York Center
Tue 06:06:05 PM 41.5467 -76.9797 27° Northeast 440 506 22,900 -323 Level New York Center
Tue 06:07:03 PM 41.6889 -76.8847 21° North 453 521 22,200 -1,322 Descending New York Center
Tue 06:08:03 PM 41.8108 -76.8208 23° Northeast 458 527 20,300 -2,000 Descending New York Center
Tue 06:09:06 PM 41.9225 -76.7583 22° Northeast 452 520 18,100 -2,250 Descending New York Center
Tue 06:10:03 PM 42.0336 -76.6986 23° Northeast 441 507 15,800 -1,881 Descending New York Center
Tue 06:11:04 PM 42.1322 -76.6431 21° North 416 479 14,400 -1,770 Descending New York Center
Tue 06:12:05 PM 42.2197 -76.5978 21° North 373 429 12,200 -1,686 Descending New York Center
Tue 06:13:05 PM 42.3053 -76.5522 22° Northeast 341 392 11,000 -610 Descending New York Center
Tue 06:14:03 PM 42.3800 -76.5108 20° North 316 364 11,000  Level New York Center
Tue 06:15:22 PM 42.4814 -76.4608 17° North 286 329 11,000  Level Boston Center
Tue 06:16:23 PM 42.5575 -76.4289 21° North 283 326 11,000  Level Boston Center
Tue 06:17:17 PM 42.6233 -76.3939 23° Northeast 284 327 11,000 -470 Level Boston Center
Tue 06:18:18 PM 42.6936 -76.3531 26° Northeast 282 325 10,100 -1,426 Descending Boston Center
Tue 06:19:19 PM 42.7725 -76.3014 North 287 330 8,100 -1,843 Descending Boston Center
Tue 06:20:25 PM 42.8481 -76.2864 North 255 293 6,200 -1,937 Descending Boston Center
Tue 06:21:26 PM 42.9169 -76.2850 North 248 285 4,000 -1,574 Descending Boston Center
Tue 06:22:27 PM 42.9819 -76.2719 10° North 222 255 3,000 -496 Descending Boston Center
Tue 06:23:27 PM 43.0303 -76.2608 15° North 184 212 3,000 -189 Level Boston Center
Tue 06:24:34 PM 43.0894 -76.2389 65° Northeast 178 205 2,600 -797 Descending Boston Center
Tue 06:25:35 PM 43.1081 -76.1831 65° Northeast 158 182 1,300 -1,279 Descending Boston Center

Login

Don't have an account? Register now (free) for customized features, flight alerts, and more!